sensor_id;sensor_type;location;lat;lon;timestamp;temperature;humidity
68804;SHT31;55787;52.678;13.314;2023-05-07T00:00:18;8.28;94.13
68804;SHT31;55787;52.678;13.314;2023-05-07T00:02:46;8.30;94.15
68804;SHT31;55787;52.678;13.314;2023-05-07T00:05:13;8.36;93.59
68804;SHT31;55787;52.678;13.314;2023-05-07T00:07:41;8.30;94.10
68804;SHT31;55787;52.678;13.314;2023-05-07T00:10:08;8.28;94.37
68804;SHT31;55787;52.678;13.314;2023-05-07T00:12:35;8.40;93.78
68804;SHT31;55787;52.678;13.314;2023-05-07T00:15:03;8.36;93.54
68804;SHT31;55787;52.678;13.314;2023-05-07T00:17:30;8.34;94.08
68804;SHT31;55787;52.678;13.314;2023-05-07T00:19:57;8.36;93.77
68804;SHT31;55787;52.678;13.314;2023-05-07T00:22:23;8.37;93.81
68804;SHT31;55787;52.678;13.314;2023-05-07T00:24:50;8.34;93.87
68804;SHT31;55787;52.678;13.314;2023-05-07T00:27:17;8.37;93.62
68804;SHT31;55787;52.678;13.314;2023-05-07T00:29:43;8.34;93.83
68804;SHT31;55787;52.678;13.314;2023-05-07T00:32:10;8.43;92.90
68804;SHT31;55787;52.678;13.314;2023-05-07T00:34:37;8.39;93.23
68804;SHT31;55787;52.678;13.314;2023-05-07T00:37:03;8.33;93.52
68804;SHT31;55787;52.678;13.314;2023-05-07T00:39:32;8.42;93.11
68804;SHT31;55787;52.678;13.314;2023-05-07T00:41:59;8.39;92.82
68804;SHT31;55787;52.678;13.314;2023-05-07T00:44:27;8.43;92.63
68804;SHT31;55787;52.678;13.314;2023-05-07T00:46:56;8.32;93.16
68804;SHT31;55787;52.678;13.314;2023-05-07T00:49:38;8.25;93.63
68804;SHT31;55787;52.678;13.314;2023-05-07T00:52:06;8.22;93.71
68804;SHT31;55787;52.678;13.314;2023-05-07T00:54:34;8.21;93.82
68804;SHT31;55787;52.678;13.314;2023-05-07T00:57:02;8.25;93.75
68804;SHT31;55787;52.678;13.314;2023-05-07T00:59:31;8.29;93.20
68804;SHT31;55787;52.678;13.314;2023-05-07T01:01:59;8.25;93.26
68804;SHT31;55787;52.678;13.314;2023-05-07T01:04:26;8.22;93.89
68804;SHT31;55787;52.678;13.314;2023-05-07T01:06:58;8.22;93.89
68804;SHT31;55787;52.678;13.314;2023-05-07T01:09:26;8.23;93.75
68804;SHT31;55787;52.678;13.314;2023-05-07T01:11:55;8.21;93.74
68804;SHT31;55787;52.678;13.314;2023-05-07T01:14:23;8.21;93.86
68804;SHT31;55787;52.678;13.314;2023-05-07T01:16:50;8.21;93.93
68804;SHT31;55787;52.678;13.314;2023-05-07T01:19:18;8.17;94.17
68804;SHT31;55787;52.678;13.314;2023-05-07T01:21:47;8.15;94.23
68804;SHT31;55787;52.678;13.314;2023-05-07T01:24:15;8.19;94.23
68804;SHT31;55787;52.678;13.314;2023-05-07T01:26:43;8.19;94.11
68804;SHT31;55787;52.678;13.314;2023-05-07T01:29:14;8.25;93.88
68804;SHT31;55787;52.678;13.314;2023-05-07T01:31:41;8.25;94.05
68804;SHT31;55787;52.678;13.314;2023-05-07T01:34:10;8.25;93.80
68804;SHT31;55787;52.678;13.314;2023-05-07T01:36:39;8.23;94.07
68804;SHT31;55787;52.678;13.314;2023-05-07T01:39:06;8.23;94.43
68804;SHT31;55787;52.678;13.314;2023-05-07T01:41:35;8.36;92.86
68804;SHT31;55787;52.678;13.314;2023-05-07T01:44:03;8.39;92.83
68804;SHT31;55787;52.678;13.314;2023-05-07T01:46:30;8.40;92.54
68804;SHT31;55787;52.678;13.314;2023-05-07T01:48:57;8.36;93.32
68804;SHT31;55787;52.678;13.314;2023-05-07T01:51:24;8.30;93.01
68804;SHT31;55787;52.678;13.314;2023-05-07T01:53:53;8.39;92.59
68804;SHT31;55787;52.678;13.314;2023-05-07T01:56:19;8.34;92.28
68804;SHT31;55787;52.678;13.314;2023-05-07T01:58:46;8.47;91.20
68804;SHT31;55787;52.678;13.314;2023-05-07T02:01:13;8.46;90.98
68804;SHT31;55787;52.678;13.314;2023-05-07T02:03:40;8.49;91.01
68804;SHT31;55787;52.678;13.314;2023-05-07T02:06:08;8.50;90.64
68804;SHT31;55787;52.678;13.314;2023-05-07T02:08:35;8.50;90.25
68804;SHT31;55787;52.678;13.314;2023-05-07T02:11:02;8.49;90.62
68804;SHT31;55787;52.678;13.314;2023-05-07T02:13:29;8.34;91.34
68804;SHT31;55787;52.678;13.314;2023-05-07T02:15:57;8.49;90.82
68804;SHT31;55787;52.678;13.314;2023-05-07T02:18:24;8.40;91.42
68804;SHT31;55787;52.678;13.314;2023-05-07T02:20:55;8.43;91.14
68804;SHT31;55787;52.678;13.314;2023-05-07T02:23:22;8.46;90.69
68804;SHT31;55787;52.678;13.314;2023-05-07T02:25:48;8.43;91.02
68804;SHT31;55787;52.678;13.314;2023-05-07T02:28:15;8.42;90.51
68804;SHT31;55787;52.678;13.314;2023-05-07T02:30:42;8.36;91.14
68804;SHT31;55787;52.678;13.314;2023-05-07T02:33:08;8.37;90.91
68804;SHT31;55787;52.678;13.314;2023-05-07T02:35:36;8.37;90.44
68804;SHT31;55787;52.678;13.314;2023-05-07T02:38:02;8.33;90.81
68804;SHT31;55787;52.678;13.314;2023-05-07T02:40:29;8.33;90.68
68804;SHT31;55787;52.678;13.314;2023-05-07T02:42:56;8.30;90.67
68804;SHT31;55787;52.678;13.314;2023-05-07T02:45:22;8.30;90.89
68804;SHT31;55787;52.678;13.314;2023-05-07T02:47:49;8.29;90.40
68804;SHT31;55787;52.678;13.314;2023-05-07T02:50:16;8.29;90.02
68804;SHT31;55787;52.678;13.314;2023-05-07T02:52:42;8.34;89.59
68804;SHT31;55787;52.678;13.314;2023-05-07T02:55:09;8.30;89.45
68804;SHT31;55787;52.678;13.314;2023-05-07T02:57:36;8.28;90.17
68804;SHT31;55787;52.678;13.314;2023-05-07T03:00:33;8.33;89.49
68804;SHT31;55787;52.678;13.314;2023-05-07T03:02:59;8.23;90.13
68804;SHT31;55787;52.678;13.314;2023-05-07T03:05:26;8.29;89.56
68804;SHT31;55787;52.678;13.314;2023-05-07T03:07:53;8.36;89.22
68804;SHT31;55787;52.678;13.314;2023-05-07T03:10:19;8.26;89.73
68804;SHT31;55787;52.678;13.314;2023-05-07T03:12:46;8.23;90.05
68804;SHT31;55787;52.678;13.314;2023-05-07T03:15:13;8.30;89.36
68804;SHT31;55787;52.678;13.314;2023-05-07T03:17:39;8.28;89.72
68804;SHT31;55787;52.678;13.314;2023-05-07T03:20:07;8.30;89.58
68804;SHT31;55787;52.678;13.314;2023-05-07T03:22:34;8.26;90.13
68804;SHT31;55787;52.678;13.314;2023-05-07T03:25:01;8.30;89.81
68804;SHT31;55787;52.678;13.314;2023-05-07T03:27:28;8.33;89.33
68804;SHT31;55787;52.678;13.314;2023-05-07T03:29:54;8.23;90.10
68804;SHT31;55787;52.678;13.314;2023-05-07T03:32:21;8.23;89.99
68804;SHT31;55787;52.678;13.314;2023-05-07T03:34:48;8.19;90.62
68804;SHT31;55787;52.678;13.314;2023-05-07T03:37:14;8.21;90.30
68804;SHT31;55787;52.678;13.314;2023-05-07T03:39:41;8.17;90.51
68804;SHT31;55787;52.678;13.314;2023-05-07T03:42:08;8.19;90.45
68804;SHT31;55787;52.678;13.314;2023-05-07T03:44:35;8.19;89.95
68804;SHT31;55787;52.678;13.314;2023-05-07T03:47:03;8.32;89.07
68804;SHT31;55787;52.678;13.314;2023-05-07T03:49:29;8.28;89.62
68804;SHT31;55787;52.678;13.314;2023-05-07T03:51:56;8.26;89.79
68804;SHT31;55787;52.678;13.314;2023-05-07T03:54:23;8.28;89.54
68804;SHT31;55787;52.678;13.314;2023-05-07T03:56:49;8.26;89.83
68804;SHT31;55787;52.678;13.314;2023-05-07T03:59:16;8.21;89.98
68804;SHT31;55787;52.678;13.314;2023-05-07T04:01:43;8.33;89.21
68804;SHT31;55787;52.678;13.314;2023-05-07T04:04:09;8.33;89.16
68804;SHT31;55787;52.678;13.314;2023-05-07T04:06:37;8.28;89.70
68804;SHT31;55787;52.678;13.314;2023-05-07T04:09:03;8.36;88.78
68804;SHT31;55787;52.678;13.314;2023-05-07T04:11:30;8.28;89.65
68804;SHT31;55787;52.678;13.314;2023-05-07T04:13:57;8.39;89.03
68804;SHT31;55787;52.678;13.314;2023-05-07T04:16:23;8.30;89.87
68804;SHT31;55787;52.678;13.314;2023-05-07T04:18:50;8.39;88.99
68804;SHT31;55787;52.678;13.314;2023-05-07T04:21:18;8.34;89.56
68804;SHT31;55787;52.678;13.314;2023-05-07T04:23:46;8.36;89.34
68804;SHT31;55787;52.678;13.314;2023-05-07T04:26:14;8.39;89.18
68804;SHT31;55787;52.678;13.314;2023-05-07T04:28:41;8.47;88.05
68804;SHT31;55787;52.678;13.314;2023-05-07T04:31:08;8.53;88.07
68804;SHT31;55787;52.678;13.314;2023-05-07T04:33:34;8.52;88.57
68804;SHT31;55787;52.678;13.314;2023-05-07T04:36:02;8.50;88.25
68804;SHT31;55787;52.678;13.314;2023-05-07T04:38:30;8.54;88.36
68804;SHT31;55787;52.678;13.314;2023-05-07T04:41:02;8.65;87.60
68804;SHT31;55787;52.678;13.314;2023-05-07T04:43:29;8.61;87.82
68804;SHT31;55787;52.678;13.314;2023-05-07T04:45:56;8.61;87.51
68804;SHT31;55787;52.678;13.314;2023-05-07T04:48:23;8.70;86.99
68804;SHT31;55787;52.678;13.314;2023-05-07T04:50:50;8.64;87.53
68804;SHT31;55787;52.678;13.314;2023-05-07T04:53:17;8.64;87.19
68804;SHT31;55787;52.678;13.314;2023-05-07T04:55:44;8.77;86.68
68804;SHT31;55787;52.678;13.314;2023-05-07T04:58:11;8.73;86.76
68804;SHT31;55787;52.678;13.314;2023-05-07T05:00:39;8.71;86.49
68804;SHT31;55787;52.678;13.314;2023-05-07T05:03:06;8.68;86.54
68804;SHT31;55787;52.678;13.314;2023-05-07T05:05:33;8.65;86.03
68804;SHT31;55787;52.678;13.314;2023-05-07T05:08:00;8.70;86.19
68804;SHT31;55787;52.678;13.314;2023-05-07T05:10:27;8.81;86.03
68804;SHT31;55787;52.678;13.314;2023-05-07T05:12:53;8.77;86.58
68804;SHT31;55787;52.678;13.314;2023-05-07T05:15:20;8.81;86.11
68804;SHT31;55787;52.678;13.314;2023-05-07T05:17:46;8.88;86.63
68804;SHT31;55787;52.678;13.314;2023-05-07T05:20:13;8.94;86.20
68804;SHT31;55787;52.678;13.314;2023-05-07T05:22:41;8.97;84.95
68804;SHT31;55787;52.678;13.314;2023-05-07T05:25:08;8.92;85.30
68804;SHT31;55787;52.678;13.314;2023-05-07T05:27:35;9.02;83.81
68804;SHT31;55787;52.678;13.314;2023-05-07T05:30:03;9.07;84.06
68804;SHT31;55787;52.678;13.314;2023-05-07T05:32:30;9.07;84.69
68804;SHT31;55787;52.678;13.314;2023-05-07T05:34:56;9.15;84.43
68804;SHT31;55787;52.678;13.314;2023-05-07T05:37:23;9.26;84.02
68804;SHT31;55787;52.678;13.314;2023-05-07T05:39:50;9.49;83.50
68804;SHT31;55787;52.678;13.314;2023-05-07T05:42:16;9.67;83.12
68804;SHT31;55787;52.678;13.314;2023-05-07T05:44:43;9.97;81.87
68804;SHT31;55787;52.678;13.314;2023-05-07T05:47:10;9.91;82.07
68804;SHT31;55787;52.678;13.314;2023-05-07T05:49:36;10.55;80.85
68804;SHT31;55787;52.678;13.314;2023-05-07T05:52:03;12.50;75.41
68804;SHT31;55787;52.678;13.314;2023-05-07T05:54:30;13.55;69.26
68804;SHT31;55787;52.678;13.314;2023-05-07T05:56:56;13.80;67.09
68804;SHT31;55787;52.678;13.314;2023-05-07T05:59:23;14.48;64.68
68804;SHT31;55787;52.678;13.314;2023-05-07T06:01:50;14.61;64.13
68804;SHT31;55787;52.678;13.314;2023-05-07T06:04:16;14.45;62.54
68804;SHT31;55787;52.678;13.314;2023-05-07T06:06:43;14.54;64.26
68804;SHT31;55787;52.678;13.314;2023-05-07T06:09:10;14.96;61.05
68804;SHT31;55787;52.678;13.314;2023-05-07T06:11:36;15.36;61.24
68804;SHT31;55787;52.678;13.314;2023-05-07T06:14:03;14.98;61.77
68804;SHT31;55787;52.678;13.314;2023-05-07T06:16:29;14.75;63.14
68804;SHT31;55787;52.678;13.314;2023-05-07T06:18:56;13.42;66.09
68804;SHT31;55787;52.678;13.314;2023-05-07T06:21:23;12.42;69.33
68804;SHT31;55787;52.678;13.314;2023-05-07T06:23:50;12.06;70.84
68804;SHT31;55787;52.678;13.314;2023-05-07T06:26:18;13.22;70.45
68804;SHT31;55787;52.678;13.314;2023-05-07T06:28:45;15.55;61.36
68804;SHT31;55787;52.678;13.314;2023-05-07T06:31:16;15.74;60.34
68804;SHT31;55787;52.678;13.314;2023-05-07T06:33:44;16.18;57.82
68804;SHT31;55787;52.678;13.314;2023-05-07T06:36:11;14.75;61.05
68804;SHT31;55787;52.678;13.314;2023-05-07T06:38:37;13.89;65.39
68804;SHT31;55787;52.678;13.314;2023-05-07T06:41:06;13.15;67.16
68804;SHT31;55787;52.678;13.314;2023-05-07T06:43:33;13.05;67.64
68804;SHT31;55787;52.678;13.314;2023-05-07T06:45:59;13.56;67.96
68804;SHT31;55787;52.678;13.314;2023-05-07T06:48:26;13.77;66.82
68804;SHT31;55787;52.678;13.314;2023-05-07T06:50:52;13.29;67.15
68804;SHT31;55787;52.678;13.314;2023-05-07T06:53:23;13.39;67.14
68804;SHT31;55787;52.678;13.314;2023-05-07T06:55:50;13.42;67.65
68804;SHT31;55787;52.678;13.314;2023-05-07T06:58:16;13.18;67.62
68804;SHT31;55787;52.678;13.314;2023-05-07T07:00:43;12.67;69.47
68804;SHT31;55787;52.678;13.314;2023-05-07T07:03:09;12.36;71.32
68804;SHT31;55787;52.678;13.314;2023-05-07T07:05:37;12.73;70.08
68804;SHT31;55787;52.678;13.314;2023-05-07T07:08:04;13.25;68.54
68804;SHT31;55787;52.678;13.314;2023-05-07T07:10:31;13.00;68.68
68804;SHT31;55787;52.678;13.314;2023-05-07T07:12:57;14.55;64.25
68804;SHT31;55787;52.678;13.314;2023-05-07T07:15:24;16.09;59.40
68804;SHT31;55787;52.678;13.314;2023-05-07T07:17:51;18.01;54.71
68804;SHT31;55787;52.678;13.314;2023-05-07T07:20:18;18.69;53.74
68804;SHT31;55787;52.678;13.314;2023-05-07T07:22:44;18.73;50.42
68804;SHT31;55787;52.678;13.314;2023-05-07T07:25:11;19.19;51.33
68804;SHT31;55787;52.678;13.314;2023-05-07T07:27:38;19.43;49.47
68804;SHT31;55787;52.678;13.314;2023-05-07T07:30:06;17.43;52.02
68804;SHT31;55787;52.678;13.314;2023-05-07T07:32:34;16.38;55.37
68804;SHT31;55787;52.678;13.314;2023-05-07T07:35:01;17.89;55.34
68804;SHT31;55787;52.678;13.314;2023-05-07T07:37:28;18.64;49.62
68804;SHT31;55787;52.678;13.314;2023-05-07T07:39:56;18.60;49.41
68804;SHT31;55787;52.678;13.314;2023-05-07T07:42:22;19.70;48.03
68804;SHT31;55787;52.678;13.314;2023-05-07T07:44:49;19.16;48.06
68804;SHT31;55787;52.678;13.314;2023-05-07T07:47:16;19.81;48.26
68804;SHT31;55787;52.678;13.314;2023-05-07T07:49:44;19.66;47.45
68804;SHT31;55787;52.678;13.314;2023-05-07T07:52:12;19.59;47.00
68804;SHT31;55787;52.678;13.314;2023-05-07T07:54:39;19.50;48.10
68804;SHT31;55787;52.678;13.314;2023-05-07T07:57:06;20.52;46.62
68804;SHT31;55787;52.678;13.314;2023-05-07T07:59:33;21.30;43.40
68804;SHT31;55787;52.678;13.314;2023-05-07T08:01:59;20.59;44.33
68804;SHT31;55787;52.678;13.314;2023-05-07T08:04:26;21.34;43.20
68804;SHT31;55787;52.678;13.314;2023-05-07T08:06:53;21.31;44.49
68804;SHT31;55787;52.678;13.314;2023-05-07T08:09:20;21.23;43.00
68804;SHT31;55787;52.678;13.314;2023-05-07T08:11:47;22.27;42.52
68804;SHT31;55787;52.678;13.314;2023-05-07T08:14:14;23.38;41.09
68804;SHT31;55787;52.678;13.314;2023-05-07T08:16:42;23.90;37.81
68804;SHT31;55787;52.678;13.314;2023-05-07T08:19:09;24.04;37.25
68804;SHT31;55787;52.678;13.314;2023-05-07T08:21:39;23.74;38.75
68804;SHT31;55787;52.678;13.314;2023-05-07T08:24:06;23.46;38.38
68804;SHT31;55787;52.678;13.314;2023-05-07T08:26:33;22.58;39.94
68804;SHT31;55787;52.678;13.314;2023-05-07T08:29:00;23.33;39.18
68804;SHT31;55787;52.678;13.314;2023-05-07T08:31:26;22.61;41.28
68804;SHT31;55787;52.678;13.314;2023-05-07T08:33:53;23.05;41.40
68804;SHT31;55787;52.678;13.314;2023-05-07T08:36:20;23.16;38.16
68804;SHT31;55787;52.678;13.314;2023-05-07T08:38:46;23.09;38.84
68804;SHT31;55787;52.678;13.314;2023-05-07T08:41:13;23.66;39.99
68804;SHT31;55787;52.678;13.314;2023-05-07T08:43:41;23.96;37.45
68804;SHT31;55787;52.678;13.314;2023-05-07T08:46:10;24.10;38.20
68804;SHT31;55787;52.678;13.314;2023-05-07T08:48:38;22.78;37.86
68804;SHT31;55787;52.678;13.314;2023-05-07T08:51:05;22.41;38.97
68804;SHT31;55787;52.678;13.314;2023-05-07T08:53:33;22.95;38.99
68804;SHT31;55787;52.678;13.314;2023-05-07T08:56:00;22.08;40.38
68804;SHT31;55787;52.678;13.314;2023-05-07T08:58:27;21.57;41.10
68804;SHT31;55787;52.678;13.314;2023-05-07T09:00:54;22.03;42.73
68804;SHT31;55787;52.678;13.314;2023-05-07T09:03:20;21.74;40.44
68804;SHT31;55787;52.678;13.314;2023-05-07T09:05:47;20.72;43.87
68804;SHT31;55787;52.678;13.314;2023-05-07T09:08:15;19.75;44.40
68804;SHT31;55787;52.678;13.314;2023-05-07T09:10:42;20.69;43.16
68804;SHT31;55787;52.678;13.314;2023-05-07T09:13:09;22.10;40.63
68804;SHT31;55787;52.678;13.314;2023-05-07T09:15:39;22.83;39.67
68804;SHT31;55787;52.678;13.314;2023-05-07T09:18:06;22.53;40.77
68804;SHT31;55787;52.678;13.314;2023-05-07T09:20:33;22.83;40.85
68804;SHT31;55787;52.678;13.314;2023-05-07T09:23:00;22.12;40.62
68804;SHT31;55787;52.678;13.314;2023-05-07T09:25:31;23.02;40.29
68804;SHT31;55787;52.678;13.314;2023-05-07T09:27:59;21.44;40.87
68804;SHT31;55787;52.678;13.314;2023-05-07T09:30:33;19.53;44.31
68804;SHT31;55787;52.678;13.314;2023-05-07T09:33:02;18.75;46.88
68804;SHT31;55787;52.678;13.314;2023-05-07T09:35:30;18.82;48.15
68804;SHT31;55787;52.678;13.314;2023-05-07T09:37:59;19.02;47.34
68804;SHT31;55787;52.678;13.314;2023-05-07T09:40:30;18.55;50.43
68804;SHT31;55787;52.678;13.314;2023-05-07T09:43:08;19.26;47.95
68804;SHT31;55787;52.678;13.314;2023-05-07T09:45:36;20.96;47.10
68804;SHT31;55787;52.678;13.314;2023-05-07T09:48:05;21.75;43.84
68804;SHT31;55787;52.678;13.314;2023-05-07T09:50:48;21.12;43.27
68804;SHT31;55787;52.678;13.314;2023-05-07T09:53:16;21.61;43.23
68804;SHT31;55787;52.678;13.314;2023-05-07T09:55:43;20.81;43.37
68804;SHT31;55787;52.678;13.314;2023-05-07T09:58:12;19.51;45.50
68804;SHT31;55787;52.678;13.314;2023-05-07T10:00:39;18.23;48.67
68804;SHT31;55787;52.678;13.314;2023-05-07T10:03:08;17.52;50.18
68804;SHT31;55787;52.678;13.314;2023-05-07T10:05:36;18.14;49.80
68804;SHT31;55787;52.678;13.314;2023-05-07T10:08:03;17.42;50.48
68804;SHT31;55787;52.678;13.314;2023-05-07T10:10:32;17.10;52.20
68804;SHT31;55787;52.678;13.314;2023-05-07T10:12:59;17.38;52.55
68804;SHT31;55787;52.678;13.314;2023-05-07T10:15:26;18.03;51.78
68804;SHT31;55787;52.678;13.314;2023-05-07T10:17:55;19.27;48.09
68804;SHT31;55787;52.678;13.314;2023-05-07T10:20:23;20.93;44.76
68804;SHT31;55787;52.678;13.314;2023-05-07T10:22:50;22.08;41.84
68804;SHT31;55787;52.678;13.314;2023-05-07T10:25:22;20.83;43.71
68804;SHT31;55787;52.678;13.314;2023-05-07T10:27:50;20.14;44.86
68804;SHT31;55787;52.678;13.314;2023-05-07T10:33:09;18.18;48.35
68804;SHT31;55787;52.678;13.314;2023-05-07T10:35:42;17.80;49.32
68804;SHT31;55787;52.678;13.314;2023-05-07T10:38:09;17.56;50.43
68804;SHT31;55787;52.678;13.314;2023-05-07T10:40:36;17.46;50.86
68804;SHT31;55787;52.678;13.314;2023-05-07T10:43:04;17.27;51.39
68804;SHT31;55787;52.678;13.314;2023-05-07T10:45:35;17.00;50.92
68804;SHT31;55787;52.678;13.314;2023-05-07T10:48:08;16.74;51.55
68804;SHT31;55787;52.678;13.314;2023-05-07T10:51:20;16.79;52.23
68804;SHT31;55787;52.678;13.314;2023-05-07T10:56:41;19.45;48.09
68804;SHT31;55787;52.678;13.314;2023-05-07T11:01:54;18.43;47.39
68804;SHT31;55787;52.678;13.314;2023-05-07T11:04:22;18.61;48.26
68804;SHT31;55787;52.678;13.314;2023-05-07T11:17:33;20.18;43.50
68804;SHT31;55787;52.678;13.314;2023-05-07T11:20:03;21.01;43.67
68804;SHT31;55787;52.678;13.314;2023-05-07T11:25:02;22.61;39.41
68804;SHT31;55787;52.678;13.314;2023-05-07T11:27:29;22.84;37.85
68804;SHT31;55787;52.678;13.314;2023-05-07T11:29:56;23.16;38.34
68804;SHT31;55787;52.678;13.314;2023-05-07T11:32:23;23.52;40.08
68804;SHT31;55787;52.678;13.314;2023-05-07T11:34:54;23.94;37.66
68804;SHT31;55787;52.678;13.314;2023-05-07T11:37:22;23.86;39.35
68804;SHT31;55787;52.678;13.314;2023-05-07T11:39:49;23.53;37.59
68804;SHT31;55787;52.678;13.314;2023-05-07T11:42:31;22.41;38.98
68804;SHT31;55787;52.678;13.314;2023-05-07T11:44:59;22.21;41.10
68804;SHT31;55787;52.678;13.314;2023-05-07T11:47:26;22.37;39.88
68804;SHT31;55787;52.678;13.314;2023-05-07T11:49:54;22.21;38.46
68804;SHT31;55787;52.678;13.314;2023-05-07T11:52:23;22.56;38.93
68804;SHT31;55787;52.678;13.314;2023-05-07T11:54:54;21.12;40.90
68804;SHT31;55787;52.678;13.314;2023-05-07T11:57:24;20.79;44.11
68804;SHT31;55787;52.678;13.314;2023-05-07T11:59:58;20.31;43.59
68804;SHT31;55787;52.678;13.314;2023-05-07T12:02:25;20.39;43.87
68804;SHT31;55787;52.678;13.314;2023-05-07T12:04:53;20.69;42.31
68804;SHT31;55787;52.678;13.314;2023-05-07T12:07:21;20.12;43.18
68804;SHT31;55787;52.678;13.314;2023-05-07T12:09:48;21.30;42.07
68804;SHT31;55787;52.678;13.314;2023-05-07T12:12:14;22.16;40.53
68804;SHT31;55787;52.678;13.314;2023-05-07T12:14:45;22.83;40.06
68804;SHT31;55787;52.678;13.314;2023-05-07T12:17:13;22.05;39.67
68804;SHT31;55787;52.678;13.314;2023-05-07T12:19:42;21.24;40.38
68804;SHT31;55787;52.678;13.314;2023-05-07T12:22:10;21.04;42.30
68804;SHT31;55787;52.678;13.314;2023-05-07T12:24:44;22.10;40.25
68804;SHT31;55787;52.678;13.314;2023-05-07T12:27:11;22.77;40.76
68804;SHT31;55787;52.678;13.314;2023-05-07T12:29:38;24.14;37.60
68804;SHT31;55787;52.678;13.314;2023-05-07T12:32:06;22.50;38.26
68804;SHT31;55787;52.678;13.314;2023-05-07T12:34:33;22.23;39.35
68804;SHT31;55787;52.678;13.314;2023-05-07T12:37:03;22.98;37.97
68804;SHT31;55787;52.678;13.314;2023-05-07T12:39:30;22.92;38.36
68804;SHT31;55787;52.678;13.314;2023-05-07T12:41:58;22.67;37.89
68804;SHT31;55787;52.678;13.314;2023-05-07T12:44:29;22.57;40.09
68804;SHT31;55787;52.678;13.314;2023-05-07T12:46:56;21.82;40.11
68804;SHT31;55787;52.678;13.314;2023-05-07T12:49:23;21.66;40.91
68804;SHT31;55787;52.678;13.314;2023-05-07T12:51:51;21.40;39.99
68804;SHT31;55787;52.678;13.314;2023-05-07T12:54:32;20.86;41.08
68804;SHT31;55787;52.678;13.314;2023-05-07T12:57:09;21.61;41.94
68804;SHT31;55787;52.678;13.314;2023-05-07T12:59:37;22.67;39.66
68804;SHT31;55787;52.678;13.314;2023-05-07T13:02:05;23.57;37.67
68804;SHT31;55787;52.678;13.314;2023-05-07T13:04:32;22.44;38.76
68804;SHT31;55787;52.678;13.314;2023-05-07T13:07:00;21.72;39.39
68804;SHT31;55787;52.678;13.314;2023-05-07T13:09:27;20.72;42.02
68804;SHT31;55787;52.678;13.314;2023-05-07T13:11:55;20.22;42.53
68804;SHT31;55787;52.678;13.314;2023-05-07T13:14:22;20.22;43.71
68804;SHT31;55787;52.678;13.314;2023-05-07T13:16:48;20.08;42.83
68804;SHT31;55787;52.678;13.314;2023-05-07T13:19:15;20.69;42.14
68804;SHT31;55787;52.678;13.314;2023-05-07T13:21:42;21.12;39.81
68804;SHT31;55787;52.678;13.314;2023-05-07T13:24:09;21.23;41.11
68804;SHT31;55787;52.678;13.314;2023-05-07T13:26:35;21.34;41.67
68804;SHT31;55787;52.678;13.314;2023-05-07T13:29:02;21.20;40.57
68804;SHT31;55787;52.678;13.314;2023-05-07T13:31:29;19.95;42.13
68804;SHT31;55787;52.678;13.314;2023-05-07T13:33:56;19.98;41.08
68804;SHT31;55787;52.678;13.314;2023-05-07T13:36:22;19.92;40.98
68804;SHT31;55787;52.678;13.314;2023-05-07T13:38:50;19.81;42.05
68804;SHT31;55787;52.678;13.314;2023-05-07T13:41:18;19.91;42.03
68804;SHT31;55787;52.678;13.314;2023-05-07T13:43:44;20.25;41.35
68804;SHT31;55787;52.678;13.314;2023-05-07T13:46:11;20.43;41.68
68804;SHT31;55787;52.678;13.314;2023-05-07T13:48:38;20.05;43.17
68804;SHT31;55787;52.678;13.314;2023-05-07T13:51:04;19.77;42.65
68804;SHT31;55787;52.678;13.314;2023-05-07T13:53:31;19.94;43.02
68804;SHT31;55787;52.678;13.314;2023-05-07T13:55:57;19.09;45.40
68804;SHT31;55787;52.678;13.314;2023-05-07T13:58:24;18.99;44.12
68804;SHT31;55787;52.678;13.314;2023-05-07T14:00:51;18.76;44.93
68804;SHT31;55787;52.678;13.314;2023-05-07T14:03:18;19.20;42.71
68804;SHT31;55787;52.678;13.314;2023-05-07T14:05:46;19.03;43.37
68804;SHT31;55787;52.678;13.314;2023-05-07T14:08:15;19.01;43.20
68804;SHT31;55787;52.678;13.314;2023-05-07T14:10:45;18.75;42.97
68804;SHT31;55787;52.678;13.314;2023-05-07T14:13:12;17.96;43.42
68804;SHT31;55787;52.678;13.314;2023-05-07T14:15:39;17.83;44.26
68804;SHT31;55787;52.678;13.314;2023-05-07T14:18:06;18.06;44.76
68804;SHT31;55787;52.678;13.314;2023-05-07T14:20:33;18.30;45.37
68804;SHT31;55787;52.678;13.314;2023-05-07T14:23:03;18.31;44.51
68804;SHT31;55787;52.678;13.314;2023-05-07T14:25:29;18.47;43.83
68804;SHT31;55787;52.678;13.314;2023-05-07T14:27:56;18.60;44.80
68804;SHT31;55787;52.678;13.314;2023-05-07T14:30:23;18.68;44.07
68804;SHT31;55787;52.678;13.314;2023-05-07T14:32:50;18.36;44.24
68804;SHT31;55787;52.678;13.314;2023-05-07T14:35:17;18.37;44.65
68804;SHT31;55787;52.678;13.314;2023-05-07T14:37:44;18.17;45.12
68804;SHT31;55787;52.678;13.314;2023-05-07T14:40:11;18.54;45.31
68804;SHT31;55787;52.678;13.314;2023-05-07T14:42:38;18.75;44.73
68804;SHT31;55787;52.678;13.314;2023-05-07T14:45:05;18.72;44.25
68804;SHT31;55787;52.678;13.314;2023-05-07T14:47:32;18.65;45.52
68804;SHT31;55787;52.678;13.314;2023-05-07T14:49:58;18.43;46.98
68804;SHT31;55787;52.678;13.314;2023-05-07T14:52:27;18.13;45.61
68804;SHT31;55787;52.678;13.314;2023-05-07T14:54:54;17.79;45.96
68804;SHT31;55787;52.678;13.314;2023-05-07T14:57:21;17.73;46.54
68804;SHT31;55787;52.678;13.314;2023-05-07T14:59:47;17.48;46.37
68804;SHT31;55787;52.678;13.314;2023-05-07T15:02:14;17.79;46.29
68804;SHT31;55787;52.678;13.314;2023-05-07T15:04:41;17.80;45.77
68804;SHT31;55787;52.678;13.314;2023-05-07T15:07:13;17.82;46.84
68804;SHT31;55787;52.678;13.314;2023-05-07T15:09:43;17.86;46.91
68804;SHT31;55787;52.678;13.314;2023-05-07T15:12:10;18.16;47.01
68804;SHT31;55787;52.678;13.314;2023-05-07T15:14:38;18.34;45.09
68804;SHT31;55787;52.678;13.314;2023-05-07T15:17:05;18.29;47.36
68804;SHT31;55787;52.678;13.314;2023-05-07T15:19:32;17.56;45.75
68804;SHT31;55787;52.678;13.314;2023-05-07T15:21:59;17.42;46.51
68804;SHT31;55787;52.678;13.314;2023-05-07T15:24:31;17.52;46.72
68804;SHT31;55787;52.678;13.314;2023-05-07T15:26:58;17.66;47.02
68804;SHT31;55787;52.678;13.314;2023-05-07T15:29:25;17.90;47.70
68804;SHT31;55787;52.678;13.314;2023-05-07T15:31:52;17.73;47.03
68804;SHT31;55787;52.678;13.314;2023-05-07T15:34:18;17.39;48.50
68804;SHT31;55787;52.678;13.314;2023-05-07T15:36:45;16.85;48.36
68804;SHT31;55787;52.678;13.314;2023-05-07T15:39:12;16.83;48.67
68804;SHT31;55787;52.678;13.314;2023-05-07T15:41:39;17.07;48.84
68804;SHT31;55787;52.678;13.314;2023-05-07T15:44:05;17.39;49.72
68804;SHT31;55787;52.678;13.314;2023-05-07T15:46:32;17.61;46.84